Time;durP1;ratioP1;P1;durP2;ratioP2;P2;SDS_P1;SDS_P2;PMS_P1;PMS_P2;Temp;Humidity;BMP_temperature;BMP_pressure;BME280_temperature;BME280_humidity;BME280_pressure;Samples;Min_cycle;Max_cycle;Signal;HPM_P1;HPM_P2
2023/03/09 00:00:57;;;;;;;17.93;15.10;;;1.00;75.90;;;;;;6235485;28;20314;-81
2023/03/09 00:04:01;;;;;;;19.73;15.63;;;1.00;75.90;;;;;;6219738;28;20250;-83
2023/03/09 00:07:06;;;;;;;19.87;16.13;;;1.00;75.90;;;;;;6223618;28;20253;-82
2023/03/09 00:10:11;;;;;;;17.57;14.63;;;1.00;75.80;;;;;;6218869;28;20239;-82
2023/03/09 00:13:14;;;;;;;19.47;15.23;;;1.00;75.70;;;;;;6211739;28;20274;-81
2023/03/09 00:16:19;;;;;;;17.57;14.20;;;1.00;75.80;;;;;;6217865;28;20380;-81
2023/03/09 00:19:26;;;;;;;19.13;16.30;;;1.00;75.90;;;;;;6220371;28;20382;-84
2023/03/09 00:22:31;;;;;;;17.97;15.40;;;1.00;75.90;;;;;;6220049;28;20234;-82
2023/03/09 00:25:34;;;;;;;19.83;16.23;;;1.10;75.60;;;;;;6239744;28;20235;-84
2023/03/09 00:28:39;;;;;;;23.70;16.80;;;1.00;75.70;;;;;;6231752;28;20831;-83
2023/03/09 00:31:44;;;;;;;22.23;16.37;;;1.10;75.50;;;;;;6254266;28;20284;-81
2023/03/09 00:34:47;;;;;;;21.60;16.70;;;1.00;75.50;;;;;;6248719;28;20230;-80
2023/03/09 00:37:51;;;;;;;19.47;15.83;;;1.00;75.50;;;;;;6242171;28;20231;-83
2023/03/09 00:40:54;;;;;;;20.23;16.47;;;1.10;75.30;;;;;;6249208;28;20220;-83
2023/03/09 00:43:57;;;;;;;21.50;17.33;;;1.10;75.30;;;;;;6228762;28;20239;-84
2023/03/09 00:47:01;;;;;;;20.27;16.50;;;1.10;75.00;;;;;;6233704;28;20238;-82
2023/03/09 00:50:05;;;;;;;22.37;17.60;;;1.00;75.10;;;;;;6211813;28;20239;-83
2023/03/09 00:53:09;;;;;;;21.70;17.60;;;1.00;75.00;;;;;;6234714;28;20310;-81
2023/03/09 00:56:16;;;;;;;19.47;16.00;;;1.10;74.60;;;;;;6210064;28;20631;-82
2023/03/09 00:59:19;;;;;;;21.57;16.70;;;1.10;74.40;;;;;;6217694;28;20291;-81
2023/03/09 01:02:23;;;;;;;19.30;16.60;;;1.00;74.40;;;;;;6218747;28;20258;-82
2023/03/09 01:05:27;;;;;;;19.67;16.53;;;1.00;74.70;;;;;;6219124;28;20643;-82
2023/03/09 01:08:31;;;;;;;19.97;17.10;;;1.00;74.60;;;;;;6222878;28;20277;-81
2023/03/09 01:11:35;;;;;;;19.10;16.43;;;1.00;74.40;;;;;;6216918;28;20293;-84
2023/03/09 01:14:38;;;;;;;23.80;17.07;;;1.00;74.30;;;;;;6221480;28;20314;-82
2023/03/09 01:17:42;;;;;;;21.90;17.10;;;1.00;74.30;;;;;;6220254;28;20231;-82
2023/03/09 01:20:54;;;;;;;21.73;17.47;;;1.00;74.20;;;;;;6191773;28;20279;-80
2023/03/09 01:23:59;;;;;;;21.70;16.90;;;1.00;74.30;;;;;;6200559;28;20231;-80
2023/03/09 01:27:02;;;;;;;25.67;18.33;;;1.00;74.20;;;;;;6208370;28;20227;-82
2023/03/09 01:30:06;;;;;;;19.97;16.67;;;1.00;74.40;;;;;;6222512;28;20235;-81
2023/03/09 01:33:10;;;;;;;24.33;17.80;;;1.00;74.40;;;;;;6216830;28;20251;-85
2023/03/09 01:36:17;;;;;;;24.17;16.87;;;1.00;74.40;;;;;;6220794;28;20234;-82
2023/03/09 01:39:22;;;;;;;23.50;18.13;;;1.00;74.30;;;;;;6222496;28;20771;-81
2023/03/09 01:42:25;;;;;;;25.60;18.60;;;1.00;74.20;;;;;;6225770;28;20239;-84
2023/03/09 01:46:05;;;;;;;22.73;17.40;;;1.00;74.20;;;;;;6225564;28;20235;-82
2023/03/09 01:49:14;;;;;;;24.53;19.20;;;1.00;74.40;;;;;;6228819;28;20238;-81
2023/03/09 01:52:20;;;;;;;25.60;18.57;;;1.00;74.40;;;;;;6224161;28;20408;-83
2023/03/09 01:55:30;;;;;;;27.00;18.50;;;1.00;74.40;;;;;;6221861;28;20231;-82
2023/03/09 01:58:35;;;;;;;23.13;17.90;;;1.00;74.50;;;;;;6226351;28;20234;-82
2023/03/09 02:01:40;;;;;;;25.00;19.83;;;0.90;74.70;;;;;;6231578;28;20231;-82
2023/03/09 02:04:47;;;;;;;27.43;19.53;;;0.90;74.90;;;;;;6240620;28;20227;-84
2023/03/09 02:07:52;;;;;;;24.13;19.13;;;0.80;75.30;;;;;;6221944;28;20234;-81
2023/03/09 02:10:59;;;;;;;24.37;19.03;;;0.90;75.20;;;;;;6230190;28;20805;-82
2023/03/09 02:14:02;;;;;;;27.50;19.97;;;0.80;75.30;;;;;;6228784;28;20232;-82
2023/03/09 02:17:06;;;;;;;25.90;19.60;;;0.80;75.50;;;;;;6207907;28;20239;-84
2023/03/09 02:20:19;;;;;;;26.40;18.17;;;0.80;75.50;;;;;;6221439;28;20239;-82
2023/03/09 02:23:29;;;;;;;26.80;19.70;;;0.80;75.60;;;;;;6208378;28;20239;-82
2023/03/09 02:26:39;;;;;;;27.23;19.80;;;0.80;75.90;;;;;;6237882;28;20840;-80
2023/03/09 02:29:45;;;;;;;27.23;20.47;;;0.80;75.90;;;;;;6223868;28;20647;-80
2023/03/09 02:32:48;;;;;;;29.23;21.07;;;0.80;75.70;;;;;;6222568;28;20727;-82
2023/03/09 02:35:51;;;;;;;28.77;20.77;;;0.80;75.80;;;;;;6210748;28;20258;-81
2023/03/09 02:38:54;;;;;;;27.90;20.80;;;0.80;76.00;;;;;;6209485;28;20308;-81
2023/03/09 02:41:59;;;;;;;26.70;20.13;;;0.80;76.20;;;;;;6230961;28;20726;-82
2023/03/09 02:45:05;;;;;;;32.77;21.53;;;0.80;76.10;;;;;;6211131;28;20239;-80
2023/03/09 02:48:08;;;;;;;29.80;21.13;;;0.70;76.40;;;;;;6232292;28;20239;-81
2023/03/09 02:51:11;;;;;;;28.70;20.70;;;0.70;76.50;;;;;;6214013;28;20239;-81
2023/03/09 02:54:14;;;;;;;30.17;20.37;;;0.70;76.50;;;;;;6257010;28;20241;-82
2023/03/09 02:57:17;;;;;;;31.53;20.80;;;0.70;76.60;;;;;;6259485;28;20234;-80
2023/03/09 03:00:23;;;;;;;30.27;21.00;;;0.70;76.60;;;;;;6245571;28;20320;-80
2023/03/09 03:03:26;;;;;;;29.47;20.13;;;0.80;76.60;;;;;;6240573;28;20227;-83
2023/03/09 03:06:29;;;;;;;28.53;18.87;;;0.80;76.50;;;;;;6216207;28;20242;-81
2023/03/09 03:09:32;;;;;;;29.10;21.67;;;0.70;76.50;;;;;;6210634;28;20749;-82
2023/03/09 03:12:35;;;;;;;25.70;19.40;;;0.70;76.60;;;;;;6228238;28;20242;-82
2023/03/09 03:15:39;;;;;;;33.03;21.70;;;0.60;76.70;;;;;;6218837;28;20254;-82
2023/03/09 03:18:42;;;;;;;26.20;20.10;;;0.70;76.90;;;;;;6214309;28;20322;-82
2023/03/09 03:21:47;;;;;;;26.97;20.17;;;0.70;76.80;;;;;;6218446;28;20240;-83
2023/03/09 03:24:51;;;;;;;28.53;19.13;;;0.60;76.80;;;;;;6228102;28;20238;-81
2023/03/09 03:27:54;;;;;;;27.57;18.57;;;0.60;76.80;;;;;;6242046;28;20238;-84
2023/03/09 03:30:59;;;;;;;26.93;18.80;;;0.60;76.90;;;;;;6258393;28;20234;-79
2023/03/09 03:34:02;;;;;;;27.23;18.70;;;0.60;76.80;;;;;;6258380;28;20250;-78
2023/03/09 03:37:05;;;;;;;26.07;18.70;;;0.60;76.90;;;;;;6269415;28;20249;-78
2023/03/09 03:40:10;;;;;;;24.80;19.10;;;0.60;76.90;;;;;;6239306;28;20255;-82
2023/03/09 03:43:13;;;;;;;26.07;18.57;;;0.60;76.90;;;;;;6265889;28;20242;-82
2023/03/09 03:46:20;;;;;;;22.23;17.77;;;0.60;76.80;;;;;;6229537;28;20243;-83
2023/03/09 03:49:23;;;;;;;24.57;18.13;;;0.60;77.00;;;;;;6244786;28;20239;-81
2023/03/09 03:52:26;;;;;;;26.30;18.67;;;0.60;76.90;;;;;;6227425;28;20703;-82
2023/03/09 03:55:29;;;;;;;21.40;17.33;;;0.60;76.80;;;;;;6230453;28;20231;-84
2023/03/09 03:58:32;;;;;;;25.10;18.73;;;0.50;76.80;;;;;;6226891;28;20227;-85
2023/03/09 04:01:36;;;;;;;25.20;18.40;;;0.50;77.00;;;;;;6241269;28;20290;-81
2023/03/09 04:04:40;;;;;;;22.53;17.93;;;0.50;77.00;;;;;;6280941;28;20233;-81
2023/03/09 04:07:43;;;;;;;28.17;19.17;;;0.50;77.10;;;;;;6261380;28;20278;-81
2023/03/09 04:10:46;;;;;;;22.83;17.93;;;0.50;77.20;;;;;;6250656;28;20227;-80
2023/03/09 04:13:49;;;;;;;28.43;19.30;;;0.40;77.20;;;;;;6253149;28;20808;-84
2023/03/09 04:16:54;;;;;;;26.67;19.37;;;0.50;77.20;;;;;;6238836;28;20227;-83
2023/03/09 04:19:59;;;;;;;26.70;19.27;;;0.50;77.00;;;;;;6227648;28;20243;-80
2023/03/09 04:23:02;;;;;;;25.63;18.90;;;0.50;77.10;;;;;;6247820;28;20235;-79
2023/03/09 04:26:06;;;;;;;26.90;19.60;;;0.50;77.00;;;;;;6222150;28;20736;-80
2023/03/09 04:29:09;;;;;;;27.60;19.80;;;0.50;77.10;;;;;;6233282;28;20243;-81
2023/03/09 04:32:14;;;;;;;25.77;19.73;;;0.40;77.20;;;;;;6175454;28;1120663;-80
2023/03/09 04:35:17;;;;;;;28.57;21.77;;;0.40;77.30;;;;;;6224296;28;20247;-82
2023/03/09 04:38:20;;;;;;;26.07;19.90;;;0.40;77.60;;;;;;6211550;28;20235;-83
2023/03/09 04:41:23;;;;;;;26.17;20.37;;;0.40;77.60;;;;;;6212912;28;20239;-80
2023/03/09 04:44:26;;;;;;;27.97;21.27;;;0.40;77.70;;;;;;6220545;28;20829;-82
2023/03/09 04:47:31;;;;;;;27.87;21.27;;;0.40;77.50;;;;;;6217018;28;20231;-80
2023/03/09 04:50:34;;;;;;;28.97;21.23;;;0.40;77.30;;;;;;6216726;28;20235;-80
2023/03/09 04:53:37;;;;;;;27.33;20.87;;;0.40;77.30;;;;;;6217736;28;20243;-81
2023/03/09 04:56:40;;;;;;;27.50;21.43;;;0.40;77.30;;;;;;6221470;28;20255;-80
2023/03/09 04:59:43;;;;;;;30.40;22.10;;;0.40;77.30;;;;;;6217997;28;20235;-81
2023/03/09 05:02:48;;;;;;;30.47;21.90;;;0.40;77.30;;;;;;6222829;28;20232;-82
2023/03/09 05:05:51;;;;;;;32.57;22.90;;;0.40;77.30;;;;;;6219138;28;20238;-80
2023/03/09 05:08:54;;;;;;;28.90;21.90;;;0.40;77.30;;;;;;6223317;28;20231;-80
2023/03/09 05:11:57;;;;;;;30.40;21.67;;;0.50;77.20;;;;;;6208604;28;20239;-80
2023/03/09 05:15:00;;;;;;;30.43;22.70;;;0.40;77.20;;;;;;6207938;28;20238;-78
2023/03/09 05:18:05;;;;;;;29.80;21.93;;;0.50;77.20;;;;;;6222930;28;20238;-79
2023/03/09 05:21:08;;;;;;;30.90;22.33;;;0.50;76.90;;;;;;6223035;28;20711;-80
2023/03/09 05:24:11;;;;;;;29.47;21.50;;;0.50;76.90;;;;;;6223012;28;20235;-80
2023/03/09 05:27:15;;;;;;;33.33;21.87;;;0.50;77.00;;;;;;6241722;28;20618;-79
2023/03/09 05:30:19;;;;;;;31.50;23.80;;;0.50;77.10;;;;;;6217786;28;20234;-79
2023/03/09 05:33:23;;;;;;;29.23;23.40;;;0.40;77.10;;;;;;6224707;28;20239;-80
2023/03/09 05:36:27;;;;;;;31.60;22.67;;;0.50;77.20;;;;;;6206941;28;20765;-76
2023/03/09 05:39:31;;;;;;;32.87;22.37;;;0.40;77.20;;;;;;6221169;28;20237;-74
2023/03/09 05:42:35;;;;;;;34.23;23.30;;;0.40;77.30;;;;;;6212215;28;20237;-77
2023/03/09 05:45:38;;;;;;;30.50;22.83;;;0.50;77.30;;;;;;6210501;28;20232;-78
2023/03/09 05:48:43;;;;;;;32.60;23.97;;;0.50;77.20;;;;;;6231667;28;20809;-76
2023/03/09 05:51:46;;;;;;;28.13;21.63;;;0.50;77.30;;;;;;6225130;28;20239;-76
2023/03/09 05:54:49;;;;;;;29.67;22.77;;;0.50;77.40;;;;;;6225311;28;20226;-77
2023/03/09 05:57:52;;;;;;;30.90;23.07;;;0.50;77.50;;;;;;6218310;28;20903;-77
2023/03/09 06:00:56;;;;;;;29.47;22.57;;;0.50;77.60;;;;;;6219644;28;20230;-78
2023/03/09 06:04:01;;;;;;;30.60;22.50;;;0.50;77.50;;;;;;6227870;28;20373;-77
2023/03/09 06:07:04;;;;;;;26.70;20.77;;;0.50;77.70;;;;;;6230100;28;20242;-75
2023/03/09 06:10:08;;;;;;;27.90;21.33;;;0.50;77.60;;;;;;6216520;28;20236;-76
2023/03/09 06:13:11;;;;;;;28.70;22.67;;;0.50;77.60;;;;;;6217082;28;20257;-77
2023/03/09 06:16:16;;;;;;;27.23;21.43;;;0.50;77.70;;;;;;6226618;28;20735;-76
2023/03/09 06:19:21;;;;;;;29.63;20.83;;;0.50;77.70;;;;;;6222214;28;20234;-76
2023/03/09 06:22:24;;;;;;;28.70;21.83;;;0.50;77.90;;;;;;6215246;28;20291;-77
2023/03/09 06:25:27;;;;;;;25.47;21.07;;;0.50;78.00;;;;;;6221561;28;20246;-76
2023/03/09 06:28:33;;;;;;;27.63;22.00;;;0.50;77.90;;;;;;6219543;28;20247;-75
2023/03/09 06:31:36;;;;;;;26.97;21.27;;;0.50;77.80;;;;;;6222211;28;20377;-78
2023/03/09 06:34:41;;;;;;;25.57;20.80;;;0.60;77.90;;;;;;6221379;28;20338;-77
2023/03/09 06:37:44;;;;;;;26.47;21.07;;;0.60;77.60;;;;;;6217859;28;20232;-77
2023/03/09 06:40:48;;;;;;;26.50;20.30;;;0.60;77.70;;;;;;6221072;28;20239;-75
2023/03/09 06:43:51;;;;;;;25.57;21.07;;;0.60;77.50;;;;;;6222106;28;20243;-77
2023/03/09 06:46:54;;;;;;;30.40;21.77;;;0.60;77.40;;;;;;6217327;28;20231;-78
2023/03/09 06:49:59;;;;;;;24.27;20.47;;;0.60;77.60;;;;;;6228155;28;20576;-76
2023/03/09 06:53:02;;;;;;;27.63;21.13;;;0.60;77.50;;;;;;6219529;28;20238;-76
2023/03/09 06:56:06;;;;;;;25.57;19.57;;;0.60;77.40;;;;;;6219185;28;20229;-76
2023/03/09 06:59:09;;;;;;;24.20;19.70;;;0.70;77.40;;;;;;6222601;28;20238;-75
2023/03/09 07:02:13;;;;;;;22.97;19.20;;;0.80;77.20;;;;;;6222536;28;20249;-77
2023/03/09 07:05:17;;;;;;;25.23;19.83;;;0.80;77.20;;;;;;6211676;28;20614;-75
2023/03/09 07:08:20;;;;;;;19.90;17.77;;;0.90;76.80;;;;;;6219503;28;20242;-77
2023/03/09 07:11:23;;;;;;;24.63;18.60;;;1.00;76.40;;;;;;6228803;28;20238;-76
2023/03/09 07:14:27;;;;;;;21.00;17.93;;;1.00;76.20;;;;;;6217725;28;20236;-77
2023/03/09 07:17:30;;;;;;;31.73;18.13;;;1.00;76.20;;;;;;6219116;28;20240;-74
2023/03/09 07:20:38;;;;;;;22.70;17.73;;;1.00;75.70;;;;;;6213086;28;20255;-77
2023/03/09 07:23:41;;;;;;;19.57;17.47;;;1.00;75.50;;;;;;6223609;28;20254;-77
2023/03/09 07:26:44;;;;;;;19.13;17.07;;;1.00;75.20;;;;;;6227781;28;20231;-78
2023/03/09 07:29:47;;;;;;;21.30;17.50;;;1.00;75.00;;;;;;6222099;28;20637;-75
2023/03/09 07:32:51;;;;;;;19.10;17.07;;;1.00;75.10;;;;;;6220527;28;20243;-77
2023/03/09 07:35:55;;;;;;;17.80;15.77;;;1.00;75.10;;;;;;6212932;28;20394;-77
2023/03/09 07:38:58;;;;;;;18.33;16.43;;;1.00;75.10;;;;;;6217182;28;20735;-77
2023/03/09 07:42:01;;;;;;;21.87;16.97;;;1.10;74.80;;;;;;6219629;28;20239;-77
2023/03/09 07:45:05;;;;;;;18.60;16.63;;;1.20;74.40;;;;;;6218027;28;20246;-78
2023/03/09 07:48:11;;;;;;;20.63;16.83;;;1.10;74.40;;;;;;6218571;28;20769;-78
2023/03/09 07:51:18;;;;;;;18.27;16.40;;;1.00;74.00;;;;;;6224528;28;20325;-77
2023/03/09 07:54:21;;;;;;;19.13;17.13;;;1.00;74.00;;;;;;6219258;28;20262;-78
2023/03/09 07:57:26;;;;;;;18.70;16.80;;;1.10;73.90;;;;;;6222146;28;20235;-79
2023/03/09 08:00:29;;;;;;;18.50;16.60;;;1.10;74.10;;;;;;6226153;28;20258;-76
2023/03/09 08:03:32;;;;;;;17.90;16.10;;;1.10;73.80;;;;;;6214568;28;20239;-76
2023/03/09 08:06:39;;;;;;;18.73;17.00;;;1.30;74.00;;;;;;6229903;28;20318;-77
2023/03/09 08:09:42;;;;;;;18.07;16.27;;;1.40;73.30;;;;;;6211848;28;20235;-77
2023/03/09 08:12:49;;;;;;;17.87;16.07;;;1.40;73.00;;;;;;6225976;28;20246;-79
2023/03/09 08:15:53;;;;;;;25.23;17.77;;;1.40;72.80;;;;;;6224731;28;20242;-76
2023/03/09 08:18:56;;;;;;;20.20;17.57;;;1.50;72.70;;;;;;6214454;28;20231;-77
2023/03/09 08:22:02;;;;;;;20.77;18.03;;;1.40;72.60;;;;;;6217500;28;20227;-77
2023/03/09 08:25:06;;;;;;;20.67;17.30;;;1.40;72.50;;;;;;6220985;28;20231;-76
2023/03/09 08:28:10;;;;;;;20.53;16.70;;;1.40;72.80;;;;;;6224531;28;20301;-77
2023/03/09 08:31:16;;;;;;;19.07;17.07;;;1.50;72.70;;;;;;6226933;28;20253;-77
2023/03/09 08:34:20;;;;;;;19.90;17.83;;;1.60;72.90;;;;;;6225863;28;20246;-77
2023/03/09 08:37:24;;;;;;;20.77;17.20;;;1.60;72.00;;;;;;6224392;28;20228;-77
2023/03/09 08:40:28;;;;;;;20.47;17.77;;;1.70;72.10;;;;;;6219733;28;20231;-77
2023/03/09 08:43:31;;;;;;;20.03;17.93;;;1.70;71.80;;;;;;6224154;28;20231;-77
2023/03/09 08:46:34;;;;;;;20.50;18.30;;;1.60;72.20;;;;;;6213868;28;20255;-76
2023/03/09 08:49:40;;;;;;;22.13;18.93;;;1.60;71.90;;;;;;6241012;28;20235;-76
2023/03/09 08:52:44;;;;;;;20.67;18.47;;;1.60;72.10;;;;;;6230979;28;20335;-78
2023/03/09 08:55:48;;;;;;;21.90;18.43;;;1.60;71.90;;;;;;6217460;28;20236;-75
2023/03/09 08:58:51;;;;;;;20.83;17.90;;;1.60;71.70;;;;;;6221799;28;20237;-76
2023/03/09 09:01:54;;;;;;;21.87;19.47;;;1.70;71.60;;;;;;6222919;28;20641;-78
2023/03/09 09:04:58;;;;;;;21.47;19.27;;;1.60;71.30;;;;;;6212681;28;20231;-76
2023/03/09 09:08:02;;;;;;;22.20;19.40;;;1.60;71.40;;;;;;6219789;28;20227;-79
2023/03/09 09:11:07;;;;;;;23.90;19.70;;;1.50;71.30;;;;;;6223538;28;20290;-78
2023/03/09 09:14:10;;;;;;;26.50;20.47;;;1.50;71.60;;;;;;6212981;28;20854;-77
2023/03/09 09:17:13;;;;;;;23.60;20.80;;;1.50;72.00;;;;;;6222434;28;20239;-80
2023/03/09 09:20:17;;;;;;;26.80;21.23;;;1.40;72.10;;;;;;6219092;28;20814;-76
2023/03/09 09:23:21;;;;;;;24.43;21.50;;;1.50;72.10;;;;;;6217569;28;20239;-77
2023/03/09 09:26:24;;;;;;;25.60;21.27;;;1.50;72.20;;;;;;6216830;28;20260;-76
2023/03/09 09:29:27;;;;;;;29.30;22.10;;;1.50;72.20;;;;;;6230577;28;20244;-77
2023/03/09 09:32:31;;;;;;;23.33;20.70;;;1.50;72.10;;;;;;6215757;28;20330;-77
2023/03/09 09:35:34;;;;;;;23.73;21.20;;;1.50;72.10;;;;;;6217811;28;20643;-78
2023/03/09 09:38:39;;;;;;;28.80;21.07;;;1.50;72.10;;;;;;6230317;28;20243;-76
2023/03/09 09:41:45;;;;;;;24.20;20.80;;;1.50;71.80;;;;;;6222388;28;20637;-78
2023/03/09 09:44:52;;;;;;;24.50;21.10;;;1.40;72.00;;;;;;6218112;28;20826;-76
2023/03/09 09:47:57;;;;;;;24.63;21.00;;;1.50;72.30;;;;;;6225374;28;20699;-79
2023/03/09 09:51:15;;;;;;;24.67;19.93;;;1.50;72.10;;;;;;6228681;28;20246;-78
2023/03/09 09:54:29;;;;;;;24.30;19.80;;;1.50;72.00;;;;;;6228138;28;20588;-77
2023/03/09 09:57:39;;;;;;;28.10;21.80;;;1.60;72.20;;;;;;6225585;28;20227;-77
2023/03/09 10:00:45;;;;;;;23.07;20.57;;;1.50;72.20;;;;;;6208230;28;20251;-77
2023/03/09 10:03:51;;;;;;;27.33;20.23;;;1.50;72.20;;;;;;6210150;28;20724;-78
2023/03/09 10:06:58;;;;;;;25.37;21.30;;;1.50;72.00;;;;;;6226477;28;20235;-78
2023/03/09 10:10:05;;;;;;;25.87;21.50;;;1.70;71.70;;;;;;6222138;28;20246;-77
2023/03/09 10:13:16;;;;;;;22.77;20.27;;;1.70;71.50;;;;;;6227387;28;20649;-77
2023/03/09 10:16:25;;;;;;;22.47;19.13;;;1.70;71.40;;;;;;6223237;28;20814;-77
2023/03/09 10:19:32;;;;;;;25.73;20.70;;;1.70;71.40;;;;;;6223142;28;20244;-77
2023/03/09 10:22:35;;;;;;;23.80;20.10;;;1.70;71.70;;;;;;6213843;28;20602;-75
2023/03/09 10:25:42;;;;;;;24.53;20.33;;;1.60;71.70;;;;;;6222408;28;20241;-76
2023/03/09 10:28:49;;;;;;;28.03;22.50;;;1.60;71.70;;;;;;6222647;28;20339;-78
2023/03/09 10:31:58;;;;;;;28.37;21.47;;;1.70;71.80;;;;;;6221312;28;20262;-75
2023/03/09 10:35:09;;;;;;;23.70;20.70;;;1.60;71.40;;;;;;6213019;28;20323;-76
2023/03/09 10:38:14;;;;;;;24.00;20.23;;;1.70;71.40;;;;;;6220871;28;20235;-77
2023/03/09 10:41:21;;;;;;;23.47;20.77;;;1.60;71.00;;;;;;6223198;28;20323;-75
2023/03/09 10:44:24;;;;;;;23.33;20.93;;;1.60;71.00;;;;;;6214988;28;20327;-74
2023/03/09 10:47:32;;;;;;;23.13;20.73;;;1.60;71.20;;;;;;6224332;28;20333;-74
2023/03/09 10:50:39;;;;;;;23.90;20.93;;;1.60;71.10;;;;;;6233421;28;20235;-77
2023/03/09 10:53:44;;;;;;;26.70;20.73;;;1.60;71.50;;;;;;6220572;28;20283;-77
2023/03/09 10:56:48;;;;;;;24.30;21.17;;;1.60;71.50;;;;;;6238507;28;20262;-78
2023/03/09 10:59:58;;;;;;;28.33;23.10;;;1.50;71.50;;;;;;6224786;28;20247;-77
2023/03/09 11:03:01;;;;;;;27.50;21.90;;;1.40;72.00;;;;;;6223152;28;20865;-74
2023/03/09 11:06:26;;;;;;;23.07;20.57;;;1.40;72.00;;;;;;6223835;28;20254;-77
2023/03/09 11:09:32;;;;;;;23.87;20.40;;;1.40;72.10;;;;;;6223516;28;20230;-76
2023/03/09 11:12:39;;;;;;;27.50;22.77;;;1.50;72.00;;;;;;6226950;28;20235;-76
2023/03/09 11:15:43;;;;;;;25.53;21.27;;;1.40;71.80;;;;;;6218399;28;20247;-74
2023/03/09 11:18:48;;;;;;;27.73;22.37;;;1.50;72.00;;;;;;6224905;28;20310;-78
2023/03/09 11:22:00;;;;;;;28.43;22.13;;;1.50;72.10;;;;;;6225647;28;20644;-74
2023/03/09 11:25:05;;;;;;;25.80;21.23;;;1.50;72.00;;;;;;6215952;28;20329;-75
2023/03/09 11:28:20;;;;;;;25.57;20.30;;;1.50;72.10;;;;;;6214913;28;20803;-76
2023/03/09 11:31:25;;;;;;;24.70;20.87;;;1.60;72.10;;;;;;6227058;28;20337;-75
2023/03/09 11:34:32;;;;;;;27.30;21.57;;;1.60;72.20;;;;;;6214901;28;20242;-75
2023/03/09 11:37:41;;;;;;;26.80;22.57;;;1.60;72.20;;;;;;6218242;28;20424;-76
2023/03/09 11:40:47;;;;;;;26.93;22.13;;;1.60;72.20;;;;;;6203784;28;20238;-77
2023/03/09 11:43:57;;;;;;;28.70;23.13;;;1.70;72.30;;;;;;6208426;28;20830;-78
2023/03/09 11:47:05;;;;;;;24.73;21.47;;;1.60;72.20;;;;;;6238719;28;20222;-76
2023/03/09 11:50:16;;;;;;;30.30;23.03;;;1.70;72.50;;;;;;6263506;28;20226;-76
2023/03/09 11:53:23;;;;;;;25.63;20.77;;;1.70;72.50;;;;;;6246924;28;20235;-76
2023/03/09 11:56:29;;;;;;;27.37;22.30;;;1.70;72.60;;;;;;6253339;28;20227;-76
2023/03/09 11:59:39;;;;;;;32.40;22.93;;;1.80;72.60;;;;;;6260808;28;20270;-75
2023/03/09 12:02:55;;;;;;;25.40;21.77;;;1.70;72.50;;;;;;6237447;28;20236;-78
2023/03/09 12:06:02;;;;;;;30.10;22.43;;;1.80;72.70;;;;;;6226802;28;20272;-76
2023/03/09 12:09:10;;;;;;;27.83;22.80;;;1.70;72.50;;;;;;6219753;28;20255;-76
2023/03/09 12:12:23;;;;;;;24.07;21.47;;;1.70;72.50;;;;;;6225422;28;20237;-76
2023/03/09 12:15:35;;;;;;;29.03;23.83;;;1.70;72.70;;;;;;6224699;28;20883;-76
2023/03/09 12:18:43;;;;;;;26.53;23.67;;;1.70;73.40;;;;;;6230877;28;20236;-76
2023/03/09 12:21:50;;;;;;;29.63;23.70;;;1.60;73.80;;;;;;6229991;28;20238;-78
2023/03/09 12:24:58;;;;;;;30.77;23.90;;;1.60;73.80;;;;;;6231613;28;20238;-76
2023/03/09 12:28:04;;;;;;;28.53;22.70;;;1.60;73.40;;;;;;6258708;28;20253;-75
2023/03/09 12:31:30;;;;;;;31.03;24.43;;;1.60;73.40;;;;;;6259565;28;20294;-75
2023/03/09 12:34:40;;;;;;;29.77;23.33;;;1.60;73.40;;;;;;6245478;28;20235;-75
2023/03/09 12:38:06;;;;;;;30.50;25.17;;;1.60;73.50;;;;;;6252479;28;20271;-75
2023/03/09 12:41:25;;;;;;;28.13;24.17;;;1.70;73.50;;;;;;6221991;28;20231;-77
2023/03/09 12:45:02;;;;;;;31.70;24.97;;;1.80;72.80;;;;;;6209617;28;20862;-77
2023/03/09 12:48:23;;;;;;;29.67;24.53;;;1.80;73.10;;;;;;6224512;28;20227;-77
2023/03/09 12:51:35;;;;;;;30.07;23.90;;;1.90;72.90;;;;;;6229295;28;20249;-75
2023/03/09 12:54:41;;;;;;;30.70;22.53;;;1.80;73.00;;;;;;6224156;28;20633;-77
2023/03/09 12:57:46;;;;;;;29.20;23.17;;;1.80;73.20;;;;;;6217786;28;20231;-73
2023/03/09 13:00:55;;;;;;;31.30;23.77;;;1.80;73.00;;;;;;6226246;28;20622;-78
2023/03/09 13:04:14;;;;;;;28.07;23.00;;;1.80;73.30;;;;;;6216758;28;20807;-76
2023/03/09 13:07:19;;;;;;;30.93;23.87;;;1.90;73.20;;;;;;6229076;28;20231;-76
2023/03/09 13:10:27;;;;;;;34.10;26.00;;;1.90;73.30;;;;;;6228113;28;20235;-76
2023/03/09 13:13:39;;;;;;;28.13;23.00;;;1.90;73.20;;;;;;6232005;28;20235;-76
2023/03/09 13:16:58;;;;;;;31.17;25.03;;;1.90;73.30;;;;;;6216425;28;20327;-76
2023/03/09 13:20:18;;;;;;;29.33;23.60;;;2.00;73.20;;;;;;6209514;28;20242;-74
2023/03/09 13:23:23;;;;;;;28.00;23.70;;;2.00;73.30;;;;;;6220564;28;20231;-76
2023/03/09 13:26:27;;;;;;;28.37;23.70;;;2.00;73.50;;;;;;6217796;28;20227;-74
2023/03/09 13:29:31;;;;;;;31.43;27.03;;;2.00;73.60;;;;;;6228026;28;20368;-77
2023/03/09 13:33:00;;;;;;;29.27;23.37;;;2.10;73.40;;;;;;6216960;28;20243;-76
2023/03/09 13:36:15;;;;;;;29.47;24.57;;;2.10;73.60;;;;;;6216479;28;20235;-77
2023/03/09 13:39:22;;;;;;;31.63;25.90;;;2.10;73.40;;;;;;6223425;28;20303;-78
2023/03/09 13:42:25;;;;;;;34.33;25.23;;;2.00;73.60;;;;;;6224156;28;20231;-77
2023/03/09 13:45:31;;;;;;;29.23;23.93;;;2.00;74.00;;;;;;6214646;28;20235;-74
2023/03/09 13:48:42;;;;;;;34.90;26.00;;;2.00;73.90;;;;;;6215286;28;20239;-75
2023/03/09 13:51:49;;;;;;;30.90;24.23;;;2.00;73.90;;;;;;6220176;28;20239;-76
2023/03/09 13:54:54;;;;;;;30.23;25.43;;;2.00;74.00;;;;;;6222329;28;20243;-78
2023/03/09 13:58:16;;;;;;;29.53;24.73;;;2.10;74.00;;;;;;6227684;28;20239;-76
2023/03/09 14:01:24;;;;;;;32.43;24.33;;;2.00;73.60;;;;;;6216861;28;20247;-76
2023/03/09 14:04:27;;;;;;;34.47;24.60;;;2.00;73.70;;;;;;6227726;28;20231;-77
2023/03/09 14:07:37;;;;;;;29.30;24.53;;;1.90;74.00;;;;;;6221771;28;20228;-77
2023/03/09 14:10:41;;;;;;;32.87;25.37;;;2.00;74.00;;;;;;6222189;28;20256;-76
2023/03/09 14:13:49;;;;;;;35.23;24.97;;;2.00;74.10;;;;;;6221760;28;20259;-76
2023/03/09 14:16:54;;;;;;;29.70;24.50;;;2.00;74.00;;;;;;6222048;28;20243;-77
2023/03/09 14:19:57;;;;;;;34.43;25.43;;;1.90;74.00;;;;;;6214512;28;20263;-76
2023/03/09 14:23:17;;;;;;;31.87;24.43;;;1.90;74.20;;;;;;6215431;28;20611;-77
2023/03/09 14:26:25;;;;;;;33.93;25.03;;;1.90;74.20;;;;;;6218573;28;20596;-75
2023/03/09 14:29:30;;;;;;;33.63;24.73;;;1.90;74.20;;;;;;6223803;28;20235;-75
2023/03/09 14:32:33;;;;;;;33.17;25.30;;;1.90;74.20;;;;;;6219991;28;20247;-75
2023/03/09 14:35:39;;;;;;;32.93;25.93;;;1.90;74.20;;;;;;6221597;28;20336;-78
2023/03/09 14:38:53;;;;;;;30.67;24.40;;;1.90;74.10;;;;;;6224887;28;20235;-79
2023/03/09 14:42:04;;;;;;;29.00;23.60;;;1.90;74.30;;;;;;6227108;28;20259;-75
2023/03/09 14:45:31;;;;;;;36.20;23.90;;;1.90;74.60;;;;;;6218116;28;20230;-75
2023/03/09 14:48:34;;;;;;;35.87;26.53;;;1.90;74.70;;;;;;6207097;28;20704;-75
2023/03/09 14:51:38;;;;;;;33.73;25.33;;;1.90;74.70;;;;;;6216185;28;20231;-75
2023/03/09 14:54:43;;;;;;;32.87;25.17;;;1.90;74.70;;;;;;6216724;28;20243;-76
2023/03/09 14:57:46;;;;;;;34.20;26.47;;;1.90;74.90;;;;;;6220290;28;20250;-77
2023/03/09 15:00:50;;;;;;;36.50;26.40;;;1.80;75.10;;;;;;6218999;28;20763;-77
2023/03/09 15:03:54;;;;;;;40.33;26.50;;;1.80;75.10;;;;;;6215293;28;20617;-76
2023/03/09 15:06:57;;;;;;;33.53;25.23;;;1.90;75.10;;;;;;6210703;28;20242;-76
2023/03/09 15:10:02;;;;;;;31.67;24.47;;;1.80;74.90;;;;;;6219089;28;20718;-77
2023/03/09 15:13:05;;;;;;;33.83;25.70;;;1.80;75.00;;;;;;6214955;28;20234;-76
2023/03/09 15:16:12;;;;;;;31.83;22.77;;;1.80;75.10;;;;;;6210625;28;20243;-75
2023/03/09 15:19:17;;;;;;;35.80;26.27;;;1.80;75.20;;;;;;6226208;28;20235;-77
2023/03/09 15:22:20;;;;;;;36.03;26.20;;;1.80;75.20;;;;;;6213686;28;20230;-77
2023/03/09 15:25:25;;;;;;;36.67;26.07;;;1.90;74.80;;;;;;6221595;28;20230;-77
2023/03/09 15:28:31;;;;;;;37.47;25.90;;;1.80;75.00;;;;;;6217033;28;20892;-76
2023/03/09 15:31:34;;;;;;;38.90;27.30;;;1.80;75.30;;;;;;6220415;28;20782;-75
2023/03/09 15:34:38;;;;;;;38.33;24.73;;;1.70;75.30;;;;;;6217956;28;20226;-74
2023/03/09 15:37:43;;;;;;;34.80;25.97;;;1.70;75.40;;;;;;6214913;28;20262;-75
2023/03/09 15:40:47;;;;;;;37.53;26.40;;;1.70;75.40;;;;;;6217090;28;20365;-77
2023/03/09 15:43:50;;;;;;;38.93;27.07;;;1.60;75.70;;;;;;6218378;28;20700;-76
2023/03/09 15:46:54;;;;;;;39.33;27.03;;;1.50;76.20;;;;;;6216085;28;20873;-76
2023/03/09 15:49:57;;;;;;;38.97;26.37;;;1.60;76.00;;;;;;6226134;28;20248;-76
2023/03/09 15:53:00;;;;;;;40.33;28.87;;;1.60;76.00;;;;;;6223403;28;20239;-77